sensor_id;sensor_type;location;lat;lon;timestamp;P1;durP1;ratioP1;P2;durP2;ratioP2
1136;SDS011;557;48.466;7.950;2022-11-27T00:01:52;5.20;;;3.40;;
1136;SDS011;557;48.466;7.950;2022-11-27T00:04:38;7.47;;;4.20;;
1136;SDS011;557;48.466;7.950;2022-11-27T00:07:24;6.70;;;3.07;;
1136;SDS011;557;48.466;7.950;2022-11-27T00:10:09;7.83;;;3.40;;
1136;SDS011;557;48.466;7.950;2022-11-27T00:12:57;11.00;;;3.90;;
1136;SDS011;557;48.466;7.950;2022-11-27T00:15:42;5.23;;;3.70;;
1136;SDS011;557;48.466;7.950;2022-11-27T00:18:28;5.97;;;3.77;;
1136;SDS011;557;48.466;7.950;2022-11-27T00:21:14;7.67;;;3.60;;
1136;SDS011;557;48.466;7.950;2022-11-27T00:24:02;4.57;;;3.33;;
1136;SDS011;557;48.466;7.950;2022-11-27T00:26:50;6.20;;;4.80;;
1136;SDS011;557;48.466;7.950;2022-11-27T00:29:37;5.20;;;3.17;;
1136;SDS011;557;48.466;7.950;2022-11-27T00:32:22;5.43;;;3.30;;
1136;SDS011;557;48.466;7.950;2022-11-27T00:35:08;5.53;;;3.50;;
1136;SDS011;557;48.466;7.950;2022-11-27T01:37:38;7.50;;;4.50;;
1136;SDS011;557;48.466;7.950;2022-11-27T01:40:23;11.50;;;4.60;;
1136;SDS011;557;48.466;7.950;2022-11-27T01:43:10;7.13;;;4.50;;
1136;SDS011;557;48.466;7.950;2022-11-27T01:45:59;10.50;;;5.00;;
1136;SDS011;557;48.466;7.950;2022-11-27T01:48:45;8.27;;;4.40;;
1136;SDS011;557;48.466;7.950;2022-11-27T01:51:31;9.33;;;5.57;;
1136;SDS011;557;48.466;7.950;2022-11-27T01:54:18;8.40;;;4.73;;
1136;SDS011;557;48.466;7.950;2022-11-27T01:57:07;9.83;;;4.80;;
1136;SDS011;557;48.466;7.950;2022-11-27T01:59:57;7.23;;;3.90;;
1136;SDS011;557;48.466;7.950;2022-11-27T02:02:45;5.00;;;3.03;;
1136;SDS011;557;48.466;7.950;2022-11-27T02:05:31;4.70;;;3.07;;
1136;SDS011;557;48.466;7.950;2022-11-27T02:08:20;7.97;;;4.07;;
1136;SDS011;557;48.466;7.950;2022-11-27T02:11:09;7.97;;;3.60;;
1136;SDS011;557;48.466;7.950;2022-11-27T02:14:16;6.40;;;3.33;;
1136;SDS011;557;48.466;7.950;2022-11-27T02:17:08;6.33;;;3.00;;
1136;SDS011;557;48.466;7.950;2022-11-27T02:23:13;5.43;;;2.93;;
1136;SDS011;557;48.466;7.950;2022-11-27T02:26:16;6.70;;;3.33;;
1136;SDS011;557;48.466;7.950;2022-11-27T02:29:26;6.43;;;3.20;;
1136;SDS011;557;48.466;7.950;2022-11-27T02:32:18;6.30;;;3.47;;
1136;SDS011;557;48.466;7.950;2022-11-27T02:35:10;5.40;;;2.80;;
1136;SDS011;557;48.466;7.950;2022-11-27T02:37:59;7.17;;;3.80;;
1136;SDS011;557;48.466;7.950;2022-11-27T02:40:51;6.20;;;4.00;;
1136;SDS011;557;48.466;7.950;2022-11-27T02:43:40;5.93;;;2.93;;
1136;SDS011;557;48.466;7.950;2022-11-27T02:46:31;5.00;;;3.60;;
1136;SDS011;557;48.466;7.950;2022-11-27T02:49:17;5.77;;;3.33;;
1136;SDS011;557;48.466;7.950;2022-11-27T02:52:03;5.50;;;2.90;;
1136;SDS011;557;48.466;7.950;2022-11-27T02:54:51;6.90;;;3.80;;
1136;SDS011;557;48.466;7.950;2022-11-27T02:57:39;5.40;;;2.93;;
1136;SDS011;557;48.466;7.950;2022-11-27T03:00:27;4.80;;;3.30;;
1136;SDS011;557;48.466;7.950;2022-11-27T03:03:16;4.93;;;3.37;;
1136;SDS011;557;48.466;7.950;2022-11-27T03:06:06;8.00;;;3.90;;
1136;SDS011;557;48.466;7.950;2022-11-27T03:08:55;6.80;;;3.93;;
1136;SDS011;557;48.466;7.950;2022-11-27T03:11:42;5.93;;;3.20;;
1136;SDS011;557;48.466;7.950;2022-11-27T03:14:48;5.13;;;3.10;;
1136;SDS011;557;48.466;7.950;2022-11-27T03:20:35;5.57;;;2.70;;
1136;SDS011;557;48.466;7.950;2022-11-27T03:23:44;8.60;;;3.30;;
1136;SDS011;557;48.466;7.950;2022-11-27T03:26:49;5.13;;;3.10;;
1136;SDS011;557;48.466;7.950;2022-11-27T03:29:36;4.87;;;3.37;;
1136;SDS011;557;48.466;7.950;2022-11-27T03:32:27;4.97;;;2.90;;
1136;SDS011;557;48.466;7.950;2022-11-27T03:35:15;4.03;;;2.90;;
1136;SDS011;557;48.466;7.950;2022-11-27T03:38:23;5.30;;;2.70;;
1136;SDS011;557;48.466;7.950;2022-11-27T03:41:11;8.30;;;3.03;;
1136;SDS011;557;48.466;7.950;2022-11-27T03:44:04;4.77;;;3.13;;
1136;SDS011;557;48.466;7.950;2022-11-27T03:52:59;8.97;;;3.20;;
1136;SDS011;557;48.466;7.950;2022-11-27T03:56:15;4.03;;;3.03;;
1136;SDS011;557;48.466;7.950;2022-11-27T03:59:10;10.07;;;3.77;;
1136;SDS011;557;48.466;7.950;2022-11-27T04:02:26;4.63;;;3.20;;
1136;SDS011;557;48.466;7.950;2022-11-27T04:05:14;5.17;;;2.80;;
1136;SDS011;557;48.466;7.950;2022-11-27T04:08:00;4.20;;;3.00;;
1136;SDS011;557;48.466;7.950;2022-11-27T04:10:45;4.73;;;2.57;;
1136;SDS011;557;48.466;7.950;2022-11-27T04:13:33;3.73;;;2.63;;
1136;SDS011;557;48.466;7.950;2022-11-27T04:16:22;4.80;;;3.10;;
1136;SDS011;557;48.466;7.950;2022-11-27T04:42:56;5.07;;;3.10;;
1136;SDS011;557;48.466;7.950;2022-11-27T04:45:42;4.03;;;2.93;;
1136;SDS011;557;48.466;7.950;2022-11-27T04:48:31;7.10;;;3.27;;
1136;SDS011;557;48.466;7.950;2022-11-27T04:51:36;5.77;;;2.70;;
1136;SDS011;557;48.466;7.950;2022-11-27T04:54:21;7.17;;;3.00;;
1136;SDS011;557;48.466;7.950;2022-11-27T04:57:07;4.37;;;2.67;;
1136;SDS011;557;48.466;7.950;2022-11-27T04:59:54;5.70;;;3.43;;
1136;SDS011;557;48.466;7.950;2022-11-27T05:02:46;3.97;;;2.43;;
1136;SDS011;557;48.466;7.950;2022-11-27T05:05:31;4.53;;;2.70;;
1136;SDS011;557;48.466;7.950;2022-11-27T05:08:36;3.97;;;1.90;;
1136;SDS011;557;48.466;7.950;2022-11-27T05:11:22;4.60;;;2.60;;
1136;SDS011;557;48.466;7.950;2022-11-27T05:14:07;3.83;;;2.30;;
1136;SDS011;557;48.466;7.950;2022-11-27T05:17:00;4.87;;;2.33;;
1136;SDS011;557;48.466;7.950;2022-11-27T05:19:47;5.33;;;2.27;;
1136;SDS011;557;48.466;7.950;2022-11-27T05:22:33;5.60;;;2.97;;
1136;SDS011;557;48.466;7.950;2022-11-27T05:25:18;4.20;;;2.83;;
1136;SDS011;557;48.466;7.950;2022-11-27T05:28:04;4.60;;;2.63;;
1136;SDS011;557;48.466;7.950;2022-11-27T05:30:49;5.63;;;4.27;;
1136;SDS011;557;48.466;7.950;2022-11-27T05:33:36;7.20;;;3.77;;
1136;SDS011;557;48.466;7.950;2022-11-27T05:36:22;5.77;;;3.33;;
1136;SDS011;557;48.466;7.950;2022-11-27T05:39:08;5.33;;;3.20;;
1136;SDS011;557;48.466;7.950;2022-11-27T05:41:54;4.40;;;2.90;;
1136;SDS011;557;48.466;7.950;2022-11-27T05:44:40;4.00;;;2.43;;
1136;SDS011;557;48.466;7.950;2022-11-27T05:47:25;4.20;;;2.73;;
1136;SDS011;557;48.466;7.950;2022-11-27T05:50:12;4.87;;;2.50;;
1136;SDS011;557;48.466;7.950;2022-11-27T05:52:58;7.30;;;3.10;;
1136;SDS011;557;48.466;7.950;2022-11-27T05:55:43;13.27;;;4.10;;
1136;SDS011;557;48.466;7.950;2022-11-27T06:36:59;5.43;;;2.70;;
1136;SDS011;557;48.466;7.950;2022-11-27T06:39:46;5.43;;;2.27;;
1136;SDS011;557;48.466;7.950;2022-11-27T06:42:32;3.40;;;2.20;;
1136;SDS011;557;48.466;7.950;2022-11-27T06:45:18;4.63;;;2.13;;
1136;SDS011;557;48.466;7.950;2022-11-27T06:48:03;4.70;;;1.70;;
1136;SDS011;557;48.466;7.950;2022-11-27T06:50:49;3.20;;;2.00;;
1136;SDS011;557;48.466;7.950;2022-11-27T06:53:36;3.43;;;2.03;;
1136;SDS011;557;48.466;7.950;2022-11-27T06:56:24;5.70;;;3.50;;
1136;SDS011;557;48.466;7.950;2022-11-27T06:59:11;5.30;;;2.97;;
1136;SDS011;557;48.466;7.950;2022-11-27T07:01:58;6.07;;;2.80;;
1136;SDS011;557;48.466;7.950;2022-11-27T07:04:43;3.93;;;2.17;;
1136;SDS011;557;48.466;7.950;2022-11-27T07:07:29;6.73;;;2.47;;
1136;SDS011;557;48.466;7.950;2022-11-27T07:10:16;4.70;;;2.70;;
1136;SDS011;557;48.466;7.950;2022-11-27T07:13:02;7.63;;;3.77;;
1136;SDS011;557;48.466;7.950;2022-11-27T09:07:28;5.07;;;2.90;;
1136;SDS011;557;48.466;7.950;2022-11-27T09:10:14;4.27;;;3.10;;
1136;SDS011;557;48.466;7.950;2022-11-27T09:13:00;5.83;;;3.90;;
1136;SDS011;557;48.466;7.950;2022-11-27T09:15:45;5.80;;;4.43;;
1136;SDS011;557;48.466;7.950;2022-11-27T09:18:31;6.07;;;4.20;;
1136;SDS011;557;48.466;7.950;2022-11-27T09:21:18;6.00;;;4.00;;
1136;SDS011;557;48.466;7.950;2022-11-27T09:24:07;7.20;;;4.10;;
1136;SDS011;557;48.466;7.950;2022-11-27T09:27:16;7.43;;;3.73;;
1136;SDS011;557;48.466;7.950;2022-11-27T09:30:02;6.83;;;3.83;;
1136;SDS011;557;48.466;7.950;2022-11-27T09:32:50;7.07;;;4.47;;
1136;SDS011;557;48.466;7.950;2022-11-27T09:35:46;6.07;;;3.97;;
1136;SDS011;557;48.466;7.950;2022-11-27T09:38:31;6.70;;;3.70;;
1136;SDS011;557;48.466;7.950;2022-11-27T09:41:23;3.97;;;2.90;;
1136;SDS011;557;48.466;7.950;2022-11-27T09:44:29;4.80;;;3.47;;
1136;SDS011;557;48.466;7.950;2022-11-27T09:47:18;4.77;;;2.97;;
1136;SDS011;557;48.466;7.950;2022-11-27T09:50:20;6.67;;;4.60;;
1136;SDS011;557;48.466;7.950;2022-11-27T09:53:11;8.70;;;4.10;;
1136;SDS011;557;48.466;7.950;2022-11-27T09:56:05;7.53;;;4.60;;
1136;SDS011;557;48.466;7.950;2022-11-27T09:58:58;11.13;;;5.17;;
1136;SDS011;557;48.466;7.950;2022-11-27T10:01:44;7.53;;;5.07;;
1136;SDS011;557;48.466;7.950;2022-11-27T10:04:30;3.73;;;2.80;;
1136;SDS011;557;48.466;7.950;2022-11-27T10:07:19;8.60;;;4.00;;
1136;SDS011;557;48.466;7.950;2022-11-27T10:10:19;5.73;;;3.43;;
1136;SDS011;557;48.466;7.950;2022-11-27T10:13:17;4.40;;;3.27;;
1136;SDS011;557;48.466;7.950;2022-11-27T10:16:17;5.70;;;3.40;;
1136;SDS011;557;48.466;7.950;2022-11-27T10:19:11;5.90;;;3.17;;
1136;SDS011;557;48.466;7.950;2022-11-27T10:22:11;5.27;;;3.90;;
1136;SDS011;557;48.466;7.950;2022-11-27T10:25:01;5.67;;;3.80;;
1136;SDS011;557;48.466;7.950;2022-11-27T10:28:07;5.70;;;3.60;;
1136;SDS011;557;48.466;7.950;2022-11-27T10:31:02;5.67;;;3.07;;
1136;SDS011;557;48.466;7.950;2022-11-27T10:33:56;4.10;;;2.73;;
1136;SDS011;557;48.466;7.950;2022-11-27T10:36:46;6.33;;;4.30;;
1136;SDS011;557;48.466;7.950;2022-11-27T10:39:35;5.50;;;3.67;;
1136;SDS011;557;48.466;7.950;2022-11-27T10:42:26;3.43;;;2.40;;
1136;SDS011;557;48.466;7.950;2022-11-27T10:45:19;5.90;;;2.73;;
1136;SDS011;557;48.466;7.950;2022-11-27T10:48:07;6.60;;;3.60;;
1136;SDS011;557;48.466;7.950;2022-11-27T10:50:54;6.40;;;3.77;;
1136;SDS011;557;48.466;7.950;2022-11-27T10:53:42;5.50;;;3.10;;
1136;SDS011;557;48.466;7.950;2022-11-27T10:56:35;7.17;;;5.10;;
1136;SDS011;557;48.466;7.950;2022-11-27T10:59:32;6.60;;;3.90;;
1136;SDS011;557;48.466;7.950;2022-11-27T11:02:25;6.20;;;4.77;;
1136;SDS011;557;48.466;7.950;2022-11-27T11:05:18;44.33;;;16.17;;
1136;SDS011;557;48.466;7.950;2022-11-27T11:08:13;52.00;;;16.77;;
1136;SDS011;557;48.466;7.950;2022-11-27T11:11:03;9.07;;;5.97;;
1136;SDS011;557;48.466;7.950;2022-11-27T11:13:49;13.00;;;6.70;;
1136;SDS011;557;48.466;7.950;2022-11-27T11:16:40;10.80;;;6.10;;
1136;SDS011;557;48.466;7.950;2022-11-27T11:19:28;12.30;;;7.40;;
1136;SDS011;557;48.466;7.950;2022-11-27T11:22:15;9.07;;;5.13;;
1136;SDS011;557;48.466;7.950;2022-11-27T11:25:03;8.10;;;5.50;;
1136;SDS011;557;48.466;7.950;2022-11-27T11:27:49;9.47;;;5.10;;
1136;SDS011;557;48.466;7.950;2022-11-27T11:30:36;13.50;;;7.37;;
1136;SDS011;557;48.466;7.950;2022-11-27T11:33:22;6.80;;;4.83;;
1136;SDS011;557;48.466;7.950;2022-11-27T11:36:09;9.00;;;5.53;;
1136;SDS011;557;48.466;7.950;2022-11-27T11:38:56;8.60;;;5.47;;
1136;SDS011;557;48.466;7.950;2022-11-27T11:41:44;9.77;;;5.63;;
1136;SDS011;557;48.466;7.950;2022-11-27T11:44:30;7.30;;;4.93;;
1136;SDS011;557;48.466;7.950;2022-11-27T11:47:20;8.63;;;5.67;;
1136;SDS011;557;48.466;7.950;2022-11-27T11:50:08;7.40;;;4.50;;
1136;SDS011;557;48.466;7.950;2022-11-27T11:52:58;9.20;;;5.17;;
1136;SDS011;557;48.466;7.950;2022-11-27T11:55:51;8.80;;;5.47;;
1136;SDS011;557;48.466;7.950;2022-11-27T11:58:51;7.90;;;4.97;;
1136;SDS011;557;48.466;7.950;2022-11-27T12:01:44;8.47;;;4.60;;
1136;SDS011;557;48.466;7.950;2022-11-27T12:04:58;12.57;;;5.70;;
1136;SDS011;557;48.466;7.950;2022-11-27T12:11:10;10.93;;;6.03;;
1136;SDS011;557;48.466;7.950;2022-11-27T12:14:06;10.40;;;6.30;;
1136;SDS011;557;48.466;7.950;2022-11-27T12:17:02;8.00;;;5.73;;
1136;SDS011;557;48.466;7.950;2022-11-27T12:20:11;6.87;;;4.30;;
1136;SDS011;557;48.466;7.950;2022-11-27T12:26:24;18.83;;;11.70;;
1136;SDS011;557;48.466;7.950;2022-11-27T12:29:27;6.47;;;4.57;;
1136;SDS011;557;48.466;7.950;2022-11-27T12:32:37;7.07;;;4.13;;
1136;SDS011;557;48.466;7.950;2022-11-27T12:35:48;9.27;;;4.53;;
1136;SDS011;557;48.466;7.950;2022-11-27T12:38:45;8.73;;;4.57;;
1136;SDS011;557;48.466;7.950;2022-11-27T12:41:46;4.80;;;3.40;;
1136;SDS011;557;48.466;7.950;2022-11-27T12:44:48;6.17;;;2.93;;
1136;SDS011;557;48.466;7.950;2022-11-27T12:47:39;6.33;;;3.73;;
1136;SDS011;557;48.466;7.950;2022-11-27T12:50:30;4.83;;;3.87;;
1136;SDS011;557;48.466;7.950;2022-11-27T12:53:20;5.00;;;3.37;;
1136;SDS011;557;48.466;7.950;2022-11-27T12:56:14;5.53;;;3.20;;
1136;SDS011;557;48.466;7.950;2022-11-27T12:59:07;6.57;;;3.83;;
1136;SDS011;557;48.466;7.950;2022-11-27T13:02:03;17.87;;;9.77;;
1136;SDS011;557;48.466;7.950;2022-11-27T13:05:06;5.67;;;3.77;;
1136;SDS011;557;48.466;7.950;2022-11-27T13:07:57;6.10;;;4.80;;
1136;SDS011;557;48.466;7.950;2022-11-27T13:10:46;25.93;;;11.03;;
1136;SDS011;557;48.466;7.950;2022-11-27T13:13:38;6.80;;;4.33;;
1136;SDS011;557;48.466;7.950;2022-11-27T13:16:29;13.77;;;6.40;;
1136;SDS011;557;48.466;7.950;2022-11-27T13:19:21;25.23;;;10.80;;
1136;SDS011;557;48.466;7.950;2022-11-27T13:22:12;12.70;;;7.80;;
1136;SDS011;557;48.466;7.950;2022-11-27T13:25:02;19.97;;;9.57;;
1136;SDS011;557;48.466;7.950;2022-11-27T13:27:49;33.60;;;14.47;;
1136;SDS011;557;48.466;7.950;2022-11-27T13:30:36;35.63;;;16.70;;
1136;SDS011;557;48.466;7.950;2022-11-27T13:33:33;14.57;;;8.10;;
1136;SDS011;557;48.466;7.950;2022-11-27T13:36:23;24.17;;;12.33;;
1136;SDS011;557;48.466;7.950;2022-11-27T13:39:20;18.23;;;9.23;;
1136;SDS011;557;48.466;7.950;2022-11-27T13:42:14;8.90;;;5.90;;
1136;SDS011;557;48.466;7.950;2022-11-27T13:45:03;6.50;;;4.40;;
1136;SDS011;557;48.466;7.950;2022-11-27T13:47:53;8.30;;;4.70;;
1136;SDS011;557;48.466;7.950;2022-11-27T13:50:42;9.93;;;5.63;;
1136;SDS011;557;48.466;7.950;2022-11-27T13:53:31;9.37;;;5.60;;
1136;SDS011;557;48.466;7.950;2022-11-27T13:56:26;7.63;;;4.80;;
1136;SDS011;557;48.466;7.950;2022-11-27T13:59:15;9.13;;;5.37;;
1136;SDS011;557;48.466;7.950;2022-11-27T14:02:02;6.80;;;4.90;;
1136;SDS011;557;48.466;7.950;2022-11-27T14:04:50;9.00;;;5.07;;
1136;SDS011;557;48.466;7.950;2022-11-27T14:07:37;8.07;;;5.03;;
1136;SDS011;557;48.466;7.950;2022-11-27T14:10:27;8.60;;;5.37;;
1136;SDS011;557;48.466;7.950;2022-11-27T14:13:16;6.03;;;4.47;;
1136;SDS011;557;48.466;7.950;2022-11-27T14:16:02;7.27;;;4.50;;
1136;SDS011;557;48.466;7.950;2022-11-27T14:18:53;6.97;;;5.00;;
1136;SDS011;557;48.466;7.950;2022-11-27T14:21:41;7.60;;;5.50;;
1136;SDS011;557;48.466;7.950;2022-11-27T14:24:36;8.53;;;5.30;;
1136;SDS011;557;48.466;7.950;2022-11-27T14:27:32;6.97;;;4.80;;
1136;SDS011;557;48.466;7.950;2022-11-27T14:30:22;8.73;;;4.40;;
1136;SDS011;557;48.466;7.950;2022-11-27T14:33:17;8.90;;;4.77;;
1136;SDS011;557;48.466;7.950;2022-11-27T14:36:05;6.73;;;4.90;;
1136;SDS011;557;48.466;7.950;2022-11-27T14:38:51;5.67;;;4.30;;
1136;SDS011;557;48.466;7.950;2022-11-27T14:41:37;9.47;;;4.70;;
1136;SDS011;557;48.466;7.950;2022-11-27T14:44:24;7.00;;;4.50;;
1136;SDS011;557;48.466;7.950;2022-11-27T14:47:14;7.83;;;4.50;;
1136;SDS011;557;48.466;7.950;2022-11-27T14:50:03;5.43;;;4.40;;
1136;SDS011;557;48.466;7.950;2022-11-27T14:52:51;6.27;;;4.17;;
1136;SDS011;557;48.466;7.950;2022-11-27T14:55:39;9.00;;;5.27;;
1136;SDS011;557;48.466;7.950;2022-11-27T14:58:25;8.83;;;4.90;;
1136;SDS011;557;48.466;7.950;2022-11-27T15:01:20;14.50;;;9.77;;
1136;SDS011;557;48.466;7.950;2022-11-27T15:04:23;9.73;;;7.30;;
1136;SDS011;557;48.466;7.950;2022-11-27T15:07:12;9.07;;;6.50;;
1136;SDS011;557;48.466;7.950;2022-11-27T15:10:00;6.80;;;5.40;;
1136;SDS011;557;48.466;7.950;2022-11-27T15:12:51;8.90;;;5.50;;
1136;SDS011;557;48.466;7.950;2022-11-27T15:15:37;9.03;;;6.43;;
1136;SDS011;557;48.466;7.950;2022-11-27T15:18:27;12.20;;;7.90;;
1136;SDS011;557;48.466;7.950;2022-11-27T15:21:16;10.70;;;7.80;;
1136;SDS011;557;48.466;7.950;2022-11-27T15:24:04;10.40;;;7.40;;
1136;SDS011;557;48.466;7.950;2022-11-27T15:26:50;20.60;;;13.40;;
1136;SDS011;557;48.466;7.950;2022-11-27T15:29:36;18.00;;;10.50;;
1136;SDS011;557;48.466;7.950;2022-11-27T15:32:22;21.43;;;14.63;;
1136;SDS011;557;48.466;7.950;2022-11-27T15:35:13;22.40;;;13.20;;
1136;SDS011;557;48.466;7.950;2022-11-27T15:38:06;19.00;;;10.30;;
1136;SDS011;557;48.466;7.950;2022-11-27T15:40:57;9.00;;;6.20;;
1136;SDS011;557;48.466;7.950;2022-11-27T15:43:44;14.13;;;7.60;;
1136;SDS011;557;48.466;7.950;2022-11-27T15:46:32;14.97;;;7.50;;
1136;SDS011;557;48.466;7.950;2022-11-27T15:49:19;11.40;;;7.60;;
1136;SDS011;557;48.466;7.950;2022-11-27T15:52:07;11.93;;;7.80;;
1136;SDS011;557;48.466;7.950;2022-11-27T15:54:53;14.20;;;8.60;;
1136;SDS011;557;48.466;7.950;2022-11-27T15:57:57;22.13;;;10.40;;
1136;SDS011;557;48.466;7.950;2022-11-27T16:00:43;17.10;;;10.20;;
1136;SDS011;557;48.466;7.950;2022-11-27T16:03:29;16.53;;;9.77;;
1136;SDS011;557;48.466;7.950;2022-11-27T16:06:14;16.10;;;9.90;;
1136;SDS011;557;48.466;7.950;2022-11-27T16:09:01;13.90;;;8.80;;
1136;SDS011;557;48.466;7.950;2022-11-27T16:11:47;11.90;;;7.33;;
1136;SDS011;557;48.466;7.950;2022-11-27T16:14:33;11.70;;;7.47;;
1136;SDS011;557;48.466;7.950;2022-11-27T16:17:19;19.03;;;11.00;;
1136;SDS011;557;48.466;7.950;2022-11-27T16:20:05;17.00;;;11.43;;
1136;SDS011;557;48.466;7.950;2022-11-27T16:22:52;16.20;;;10.93;;
1136;SDS011;557;48.466;7.950;2022-11-27T16:25:39;16.03;;;10.47;;
1136;SDS011;557;48.466;7.950;2022-11-27T16:28:25;17.80;;;10.67;;
1136;SDS011;557;48.466;7.950;2022-11-27T16:31:11;14.47;;;9.80;;
1136;SDS011;557;48.466;7.950;2022-11-27T16:33:58;17.30;;;9.60;;
1136;SDS011;557;48.466;7.950;2022-11-27T16:36:44;15.57;;;10.47;;
1136;SDS011;557;48.466;7.950;2022-11-27T16:39:30;17.20;;;10.30;;
1136;SDS011;557;48.466;7.950;2022-11-27T16:42:16;15.77;;;10.30;;
1136;SDS011;557;48.466;7.950;2022-11-27T16:45:02;16.77;;;11.37;;
1136;SDS011;557;48.466;7.950;2022-11-27T16:47:49;18.67;;;12.03;;
1136;SDS011;557;48.466;7.950;2022-11-27T16:50:34;20.43;;;13.23;;
1136;SDS011;557;48.466;7.950;2022-11-27T16:53:20;16.90;;;11.23;;
1136;SDS011;557;48.466;7.950;2022-11-27T16:56:06;17.33;;;11.53;;
1136;SDS011;557;48.466;7.950;2022-11-27T16:58:55;20.07;;;11.27;;
1136;SDS011;557;48.466;7.950;2022-11-27T17:01:42;17.30;;;12.43;;
1136;SDS011;557;48.466;7.950;2022-11-27T17:04:28;16.70;;;10.90;;
1136;SDS011;557;48.466;7.950;2022-11-27T17:07:13;13.57;;;9.77;;
1136;SDS011;557;48.466;7.950;2022-11-27T17:09:58;17.53;;;10.37;;
1136;SDS011;557;48.466;7.950;2022-11-27T17:12:44;17.30;;;11.50;;
1136;SDS011;557;48.466;7.950;2022-11-27T17:15:31;20.00;;;12.63;;
1136;SDS011;557;48.466;7.950;2022-11-27T17:18:18;20.17;;;10.63;;
1136;SDS011;557;48.466;7.950;2022-11-27T17:21:05;16.13;;;10.50;;
1136;SDS011;557;48.466;7.950;2022-11-27T17:23:53;14.67;;;9.87;;
1136;SDS011;557;48.466;7.950;2022-11-27T17:26:39;14.03;;;9.00;;
1136;SDS011;557;48.466;7.950;2022-11-27T17:29:26;15.90;;;9.13;;
1136;SDS011;557;48.466;7.950;2022-11-27T17:32:13;11.70;;;8.53;;
1136;SDS011;557;48.466;7.950;2022-11-27T17:34:58;9.83;;;6.73;;
1136;SDS011;557;48.466;7.950;2022-11-27T17:37:44;12.17;;;7.70;;
1136;SDS011;557;48.466;7.950;2022-11-27T17:40:29;6.67;;;4.73;;
1136;SDS011;557;48.466;7.950;2022-11-27T17:43:16;11.13;;;6.77;;
1136;SDS011;557;48.466;7.950;2022-11-27T17:46:05;5.60;;;4.63;;
1136;SDS011;557;48.466;7.950;2022-11-27T17:48:53;8.00;;;4.40;;
1136;SDS011;557;48.466;7.950;2022-11-27T17:52:01;7.27;;;4.57;;
1136;SDS011;557;48.466;7.950;2022-11-27T17:54:47;5.97;;;4.90;;
1136;SDS011;557;48.466;7.950;2022-11-27T17:57:33;7.57;;;5.10;;
1136;SDS011;557;48.466;7.950;2022-11-27T18:00:18;7.90;;;5.50;;
1136;SDS011;557;48.466;7.950;2022-11-27T18:03:23;6.67;;;4.00;;
1136;SDS011;557;48.466;7.950;2022-11-27T18:06:10;7.77;;;4.70;;
1136;SDS011;557;48.466;7.950;2022-11-27T18:08:56;10.20;;;6.67;;
1136;SDS011;557;48.466;7.950;2022-11-27T18:11:42;7.90;;;5.17;;
1136;SDS011;557;48.466;7.950;2022-11-27T18:14:27;7.13;;;6.20;;
1136;SDS011;557;48.466;7.950;2022-11-27T18:17:13;6.80;;;4.80;;
1136;SDS011;557;48.466;7.950;2022-11-27T18:20:00;11.23;;;7.13;;
1136;SDS011;557;48.466;7.950;2022-11-27T18:22:48;8.13;;;5.20;;
1136;SDS011;557;48.466;7.950;2022-11-27T18:25:34;13.10;;;7.53;;
1136;SDS011;557;48.466;7.950;2022-11-27T18:28:25;15.13;;;8.03;;
1136;SDS011;557;48.466;7.950;2022-11-27T18:31:13;9.10;;;5.90;;
1136;SDS011;557;48.466;7.950;2022-11-27T18:34:00;8.23;;;4.80;;
1136;SDS011;557;48.466;7.950;2022-11-27T18:36:45;7.50;;;4.87;;
1136;SDS011;557;48.466;7.950;2022-11-27T18:39:32;12.43;;;7.90;;
1136;SDS011;557;48.466;7.950;2022-11-27T18:42:19;15.70;;;11.13;;
1136;SDS011;557;48.466;7.950;2022-11-27T18:45:05;15.53;;;11.00;;
1136;SDS011;557;48.466;7.950;2022-11-27T18:47:53;20.33;;;12.10;;
1136;SDS011;557;48.466;7.950;2022-11-27T18:50:39;22.90;;;13.17;;
1136;SDS011;557;48.466;7.950;2022-11-27T18:53:25;22.93;;;13.80;;
1136;SDS011;557;48.466;7.950;2022-11-27T18:56:13;39.90;;;20.73;;
1136;SDS011;557;48.466;7.950;2022-11-27T18:59:00;25.87;;;13.73;;
1136;SDS011;557;48.466;7.950;2022-11-27T19:01:48;19.70;;;12.10;;
1136;SDS011;557;48.466;7.950;2022-11-27T19:04:34;14.13;;;8.03;;
1136;SDS011;557;48.466;7.950;2022-11-27T19:07:20;10.97;;;6.40;;
1136;SDS011;557;48.466;7.950;2022-11-27T19:10:08;10.60;;;6.50;;
1136;SDS011;557;48.466;7.950;2022-11-27T19:12:55;6.07;;;4.23;;
1136;SDS011;557;48.466;7.950;2022-11-27T19:15:41;5.13;;;3.77;;
1136;SDS011;557;48.466;7.950;2022-11-27T19:18:28;4.80;;;3.83;;
1136;SDS011;557;48.466;7.950;2022-11-27T19:21:15;11.70;;;5.30;;
1136;SDS011;557;48.466;7.950;2022-11-27T19:24:03;7.53;;;5.50;;
1136;SDS011;557;48.466;7.950;2022-11-27T19:26:49;4.57;;;3.67;;
1136;SDS011;557;48.466;7.950;2022-11-27T19:29:36;5.30;;;3.63;;
1136;SDS011;557;48.466;7.950;2022-11-27T19:32:22;14.53;;;8.53;;
1136;SDS011;557;48.466;7.950;2022-11-27T19:35:14;8.00;;;5.27;;
1136;SDS011;557;48.466;7.950;2022-11-27T19:38:05;7.77;;;5.67;;
1136;SDS011;557;48.466;7.950;2022-11-27T19:40:51;12.57;;;6.43;;
1136;SDS011;557;48.466;7.950;2022-11-27T19:43:36;7.27;;;4.50;;
1136;SDS011;557;48.466;7.950;2022-11-27T19:46:24;5.87;;;4.17;;
1136;SDS011;557;48.466;7.950;2022-11-27T19:49:17;5.97;;;3.67;;
1136;SDS011;557;48.466;7.950;2022-11-27T19:52:04;4.50;;;3.47;;
1136;SDS011;557;48.466;7.950;2022-11-27T19:54:49;6.40;;;4.43;;
1136;SDS011;557;48.466;7.950;2022-11-27T19:57:35;4.83;;;3.00;;
1136;SDS011;557;48.466;7.950;2022-11-27T20:00:21;6.00;;;3.80;;
1136;SDS011;557;48.466;7.950;2022-11-27T20:03:09;7.67;;;4.00;;
1136;SDS011;557;48.466;7.950;2022-11-27T20:05:59;4.87;;;3.80;;
1136;SDS011;557;48.466;7.950;2022-11-27T20:08:47;6.93;;;4.20;;
1136;SDS011;557;48.466;7.950;2022-11-27T20:11:33;11.27;;;6.87;;
1136;SDS011;557;48.466;7.950;2022-11-27T20:14:19;8.30;;;5.10;;
1136;SDS011;557;48.466;7.950;2022-11-27T20:17:04;6.43;;;4.10;;
1136;SDS011;557;48.466;7.950;2022-11-27T20:19:51;15.23;;;7.23;;
1136;SDS011;557;48.466;7.950;2022-11-27T20:22:37;11.17;;;6.63;;
1136;SDS011;557;48.466;7.950;2022-11-27T20:25:23;8.80;;;6.23;;
1136;SDS011;557;48.466;7.950;2022-11-27T20:28:10;8.87;;;5.37;;
1136;SDS011;557;48.466;7.950;2022-11-27T20:30:58;8.07;;;4.83;;
1136;SDS011;557;48.466;7.950;2022-11-27T20:33:49;11.07;;;6.67;;
1136;SDS011;557;48.466;7.950;2022-11-27T20:36:37;9.03;;;6.00;;
1136;SDS011;557;48.466;7.950;2022-11-27T20:39:23;9.00;;;5.30;;
1136;SDS011;557;48.466;7.950;2022-11-27T20:42:10;12.70;;;7.13;;
1136;SDS011;557;48.466;7.950;2022-11-27T20:44:56;19.20;;;10.53;;
1136;SDS011;557;48.466;7.950;2022-11-27T20:47:47;13.87;;;9.50;;
1136;SDS011;557;48.466;7.950;2022-11-27T20:50:33;11.70;;;9.00;;
1136;SDS011;557;48.466;7.950;2022-11-27T20:53:21;28.00;;;14.20;;
1136;SDS011;557;48.466;7.950;2022-11-27T20:56:07;19.33;;;11.03;;
1136;SDS011;557;48.466;7.950;2022-11-27T20:58:55;12.30;;;8.73;;
1136;SDS011;557;48.466;7.950;2022-11-27T21:01:41;7.67;;;5.67;;
1136;SDS011;557;48.466;7.950;2022-11-27T21:04:27;10.60;;;5.60;;
1136;SDS011;557;48.466;7.950;2022-11-27T21:07:12;7.37;;;5.17;;
1136;SDS011;557;48.466;7.950;2022-11-27T21:09:59;7.43;;;5.43;;
1136;SDS011;557;48.466;7.950;2022-11-27T21:12:49;9.13;;;5.67;;
1136;SDS011;557;48.466;7.950;2022-11-27T21:15:34;6.17;;;4.93;;
1136;SDS011;557;48.466;7.950;2022-11-27T21:18:20;7.37;;;4.63;;
1136;SDS011;557;48.466;7.950;2022-11-27T21:21:06;6.37;;;3.80;;
1136;SDS011;557;48.466;7.950;2022-11-27T21:23:54;7.63;;;4.40;;
1136;SDS011;557;48.466;7.950;2022-11-27T21:26:41;6.83;;;4.10;;
1136;SDS011;557;48.466;7.950;2022-11-27T21:29:28;6.77;;;4.53;;
1136;SDS011;557;48.466;7.950;2022-11-27T21:32:13;8.30;;;4.70;;
1136;SDS011;557;48.466;7.950;2022-11-27T21:35:00;7.20;;;4.10;;
1136;SDS011;557;48.466;7.950;2022-11-27T21:37:46;6.30;;;4.20;;
1136;SDS011;557;48.466;7.950;2022-11-27T21:40:32;9.27;;;4.40;;
1136;SDS011;557;48.466;7.950;2022-11-27T21:43:19;9.13;;;4.00;;
1136;SDS011;557;48.466;7.950;2022-11-27T21:46:05;5.93;;;4.57;;
1136;SDS011;557;48.466;7.950;2022-11-27T21:48:52;6.20;;;4.13;;
1136;SDS011;557;48.466;7.950;2022-11-27T21:51:39;9.10;;;4.20;;
1136;SDS011;557;48.466;7.950;2022-11-27T21:54:25;4.77;;;3.70;;
1136;SDS011;557;48.466;7.950;2022-11-27T21:57:10;6.90;;;4.30;;